Sunapee, NH

5:08 PM EST on December 22, 2014 (GMT -0500)
White Shutters | Change Station
CLOSE
Current Station
Personal Weather Station
Location: Sunapee, NH
Elevation: 1129 ft
Nearby Weather Stations
Active Advisory: Winter Weather Advisory

Elev 1129 ft 43.40 °N, 72.08 °W | Updated 2 minutes ago

Overcast
Overcast
31.1 °F
Feels Like 31 °F
N
0.0
Wind Variable Wind from North
Gusts 0.0 mph

Today
High -- | Low -- °F
--% Chance of Precip.
Yesterday
High -- | Low -- °F
Precip. -- in
7:18 AM 4:15 PM
New Moon, 1% visible
Pressure 30.35 in
Visibility 10.0 miles
Clouds Overcast 1900 ft
Windchill 31 °F
Dew Point 28 °F
Humidity 87%
Rainfall 0.04 in
Snow Depth Not available.
UV 0 out of 12
Pollen .10 out of 12
Air Quality Not available.
Flu Activity Not available.
METAR KLEB 222153Z 00000KT 10SM OVC019 01/M02 A3032 RMK AO2 SLP276 T00111022

More Conditions Fewer Conditions

Pressure 30.35 in
Visibility 10.0 miles
Clouds Overcast 1900 ft
Windchill 31 °F
Dew Point 28 °F
Humidity 87%
Rainfall 0.04 in
Snow Depth Not available.
UV 0 out of 12
Pollen .10 out of 12
Air Quality Not available.
Flu Activity Not available.
METAR KLEB 222153Z 00000KT 10SM OVC019 01/M02 A3032 RMK AO2 SLP276 T00111022

More Conditions Fewer Conditions

10-Day Weather Forecast

Almanac

Astronomy

Dec. 22, 2014 Rise Set
Actual Time
Civil Twilight
Nautical Twilight
Astronomical Twilight
Moon
Length of Visible Light
Length of Day
Tomorrow will be .
, % of the Moon is Illuminated

Today's Extremes

State Highs State Lows

Community

WunderPhotos

Upload Photos

1,779,691 photos uploaded!

WunderBlogs® & News

Nearby

Air Quality

  Air Quality AQ Index Pollutant
Not available.

Snow Depth

Station Depth Elevation

Earthquake Activity

City Distance Mag. Time & Date
Minimum magnitude displayed is 2.5.

Coastal Water Temperatures

Place Temperature

Nearby Weather Stations